KSHR/SHR METAR and TAF weather

Enter ICAO airport designator
Station Type Date Time Source
KSHR METAR 2023/12/03 15:53 UTC NOAA

KSHR 031553Z AUTO 32014G23KT 10SM OVC070 03/M09 A2984 RMK AO2 PK WND 31033/1523 SLP121 T00281089


Station Type Date Time Source
KSHR Decoded METAR 2023/12/03 15:53 UTC NOAA

SHERIDAN COUNTY AIRPORT, WY, United States (KSHR) 44-46N 106-58W 1202M
Dec 03, 2023 - 10:53 AM EST / 2023.12.03 1553 UTC
Wind: from the NW (320 degrees) at 16 MPH (14 KT) gusting to 26 MPH (23 KT):0
Visibility: 10 mile(s):0
Sky conditions: overcast
Temperature: 37.0 F (2.8 C)
Dew Point: 16.0 F (-8.9 C)
Relative Humidity: 41%
Pressure (altimeter): 29.84 in. Hg (1010 hPa)
ob: KSHR 031553Z AUTO 32014G23KT 10SM OVC070 03/M09 A2984 RMK AO2 PK WND 31033/1523 SLP121 T00281089
cycle: 16

Station Type Date Time Source
KSHR TAF 2023/12/03 12:22 UTC NOAA

TAF KSHR 031120Z 0312/0412 32010G16KT P6SM BKN100
FM031400 31015G26KT P6SM BKN100
FM032100 320011KT P6SM FEW100 SCT250
FM040000 19010KT P6SM FEW100 SCT250

Example: see airport list